Rocky Boy, Montana
Current Conditions -  °F | °C
As of 7:41 PM on Friday 28 Nov 2014 (Local Time) from KHVR Reporting Station
Haze Haze  
Wind Chill: -16°   Ceiling: 1400
Heat Index:   Visibility: 6mi
Dew Point: -2°   Wind: 16mph
Humidity: 80%   Direction: 320°NW
Pressure: 29.65"   Gusts: NA
Location:  48.3217°N, 109.835°W
Report Text: KHVR 290241Z AUTO 32014KT 6SM HZ OVC014 M16/M19 A2965 RMK AO2 I1000 T11611189
Loading
Personal Weather Stations






























Interactive Weather Map New forecast layout! Learn more

10-Day Weather Forecast

Advertisements
Track Severe Weather on mobile